createdAt,value
2022-08-12T00:00:08.902Z,49.04
2022-08-12T00:02:54.663Z,49.23
2022-08-12T00:05:58.292Z,49.30
2022-08-12T00:08:45.997Z,49.28
2022-08-12T00:11:32.893Z,49.62
2022-08-12T00:14:18.141Z,49.64
2022-08-12T00:17:03.862Z,49.57
2022-08-12T00:19:49.138Z,49.88
2022-08-12T00:22:34.502Z,50.49
2022-08-12T00:25:21.922Z,50.73
2022-08-12T00:28:27.424Z,51.29
2022-08-12T00:31:13.238Z,51.53
2022-08-12T00:33:58.791Z,51.84
2022-08-12T00:36:50.197Z,52.11
2022-08-12T00:39:36.318Z,51.98
2022-08-12T00:42:13.103Z,52.37
2022-08-12T00:44:45.508Z,52.47
2022-08-12T00:47:25.089Z,52.35
2022-08-12T00:49:54.067Z,52.76
2022-08-12T00:52:22.217Z,53.11
2022-08-12T00:54:57.132Z,53.10
2022-08-12T00:57:27.223Z,53.07
2022-08-12T00:59:58.092Z,53.13
2022-08-12T01:02:31.107Z,52.85
2022-08-12T01:05:19.978Z,53.13
2022-08-12T01:08:06.917Z,53.10
2022-08-12T01:10:55.066Z,53.12
2022-08-12T01:13:22.872Z,53.26
2022-08-12T01:15:52.633Z,53.29
2022-08-12T01:18:21.315Z,53.45
2022-08-12T01:21:12.042Z,53.89
2022-08-12T01:23:44.962Z,54.02
2022-08-12T01:26:17.509Z,54.49
2022-08-12T01:28:47.847Z,54.55
2022-08-12T01:31:20.080Z,54.58
2022-08-12T01:34:35.936Z,54.39
2022-08-12T01:37:02.360Z,54.21
2022-08-12T01:40:35.259Z,53.97
2022-08-12T01:42:50.467Z,53.94
2022-08-12T01:45:22.973Z,53.88
2022-08-12T01:48:19.015Z,53.88
2022-08-12T01:50:55.031Z,54.07
2022-08-12T01:53:50.314Z,54.35
2022-08-12T01:56:19.022Z,53.96
2022-08-12T01:59:05.250Z,54.04
2022-08-12T02:01:39.476Z,54.19
2022-08-12T02:04:53.237Z,54.32
2022-08-12T02:07:57.293Z,54.17
2022-08-12T02:11:11.332Z,54.32
2022-08-12T02:13:53.941Z,54.38
2022-08-12T02:16:36.355Z,54.57
2022-08-12T02:19:23.011Z,54.43
2022-08-12T02:22:38.978Z,54.53
2022-08-12T02:25:10.964Z,54.44
2022-08-12T02:27:46.816Z,54.51
2022-08-12T02:30:19.325Z,54.61
2022-08-12T02:32:48.106Z,54.79
2022-08-12T02:35:24.246Z,54.83
2022-08-12T02:37:53.826Z,55.01
2022-08-12T02:40:22.842Z,55.00
2022-08-12T02:42:55.330Z,55.00
2022-08-12T02:45:33.242Z,55.33
2022-08-12T02:48:06.620Z,55.42
2022-08-12T02:50:39.758Z,55.13
2022-08-12T02:53:07.767Z,55.19
2022-08-12T02:55:36.694Z,55.31
2022-08-12T02:58:12.121Z,55.06
2022-08-12T03:00:40.371Z,55.04
2022-08-12T03:03:10.179Z,54.88
2022-08-12T03:05:45.163Z,54.92
2022-08-12T03:08:31.455Z,55.17
2022-08-12T03:11:27.481Z,55.22
2022-08-12T03:14:03.788Z,55.36
2022-08-12T03:16:33.166Z,55.46
2022-08-12T03:19:00.630Z,55.47
2022-08-12T03:21:56.507Z,55.59
2022-08-12T03:24:17.332Z,55.68
2022-08-12T03:26:45.462Z,55.93
2022-08-12T03:29:12.629Z,56.13
2022-08-12T03:31:39.270Z,56.21
2022-08-12T03:34:09.033Z,56.22
2022-08-12T03:36:39.531Z,56.51
2022-08-12T03:39:17.167Z,56.63
2022-08-12T03:41:58.138Z,56.71
2022-08-12T03:44:50.770Z,56.58
2022-08-12T03:48:10.730Z,56.84
2022-08-12T03:50:59.113Z,56.67
2022-08-12T03:53:47.521Z,56.30
2022-08-12T03:56:33.332Z,56.55
2022-08-12T03:59:20.413Z,56.71
2022-08-12T04:01:57.370Z,57.02
2022-08-12T04:04:34.722Z,56.78
2022-08-12T04:07:03.962Z,56.57
2022-08-12T04:09:30.880Z,57.06
2022-08-12T04:12:16.345Z,57.02
2022-08-12T04:14:43.151Z,57.07
2022-08-12T04:17:10.037Z,57.22
2022-08-12T04:19:37.375Z,57.46
2022-08-12T04:22:04.247Z,57.31
2022-08-12T04:24:36.009Z,57.23
2022-08-12T04:27:08.964Z,57.69
2022-08-12T04:30:30.689Z,57.46
2022-08-12T04:32:27.173Z,57.44
2022-08-12T04:34:54.626Z,57.94
2022-08-12T04:37:21.416Z,57.66
2022-08-12T04:39:48.933Z,58.02
2022-08-12T04:42:16.222Z,58.17
2022-08-12T04:44:44.493Z,58.24
2022-08-12T04:47:14.321Z,58.40
2022-08-12T04:49:43.239Z,58.52
2022-08-12T04:52:10.710Z,58.49
2022-08-12T04:54:37.954Z,58.65
2022-08-12T04:57:06.024Z,58.52
2022-08-12T04:59:47.366Z,58.71
2022-08-12T05:02:20.884Z,58.60
2022-08-12T05:04:52.041Z,58.46
2022-08-12T05:07:20.144Z,58.18
2022-08-12T05:09:59.126Z,57.93
2022-08-12T05:12:37.531Z,57.57
2022-08-12T05:15:12.785Z,57.67
2022-08-12T05:17:53.422Z,57.80
2022-08-12T05:20:21.546Z,57.80
2022-08-12T05:22:50.040Z,57.55
2022-08-12T05:25:20.269Z,57.30
2022-08-12T05:27:57.854Z,57.13
2022-08-12T05:30:27.643Z,56.73
2022-08-12T05:33:00.082Z,56.48
2022-08-12T05:35:27.840Z,56.01
2022-08-12T05:38:14.782Z,55.59
2022-08-12T05:40:41.974Z,55.32
2022-08-12T05:43:08.973Z,54.93
2022-08-12T05:45:35.849Z,54.23
2022-08-12T05:48:02.907Z,53.22
2022-08-12T05:50:29.732Z,53.17
2022-08-12T05:52:56.401Z,52.95
2022-08-12T05:55:26.981Z,52.80
2022-08-12T05:57:57.200Z,52.22
2022-08-12T06:00:25.900Z,51.89
2022-08-12T06:03:01.380Z,51.18
2022-08-12T06:05:53.236Z,51.63
2022-08-12T06:08:23.099Z,50.57
2022-08-12T06:10:50.286Z,49.80
2022-08-12T06:13:28.008Z,49.47
2022-08-12T06:16:09.841Z,49.80
2022-08-12T06:18:40.387Z,49.41
2022-08-12T06:21:08.983Z,48.96
2022-08-12T06:23:40.547Z,49.06
2022-08-12T06:26:12.605Z,48.78
2022-08-12T06:28:40.170Z,48.12
2022-08-12T06:31:26.094Z,47.71
2022-08-12T06:34:01.173Z,47.20
2022-08-12T06:36:42.888Z,46.08
2022-08-12T06:39:15.015Z,46.08
2022-08-12T06:42:02.482Z,45.93
2022-08-12T06:44:48.586Z,45.26
2022-08-12T06:47:16.898Z,45.29
2022-08-12T06:49:44.526Z,44.66
2022-08-12T06:52:11.420Z,44.64
2022-08-12T06:54:38.078Z,44.33
2022-08-12T06:58:06.891Z,44.43
2022-08-12T06:59:51.434Z,43.34
2022-08-12T07:02:21.091Z,43.66
2022-08-12T07:04:47.784Z,42.89
2022-08-12T07:07:14.906Z,42.82
2022-08-12T07:10:05.371Z,43.15
2022-08-12T07:12:29.815Z,43.33
2022-08-12T07:14:58.475Z,43.52
2022-08-12T07:17:26.419Z,43.52
2022-08-12T07:19:53.952Z,43.07
2022-08-12T07:22:23.330Z,42.73
2022-08-12T07:25:10.184Z,42.17
2022-08-12T07:27:42.678Z,41.26
2022-08-12T07:30:10.390Z,40.60
2022-08-12T07:32:37.611Z,40.11
2022-08-12T07:35:04.713Z,40.94
2022-08-12T07:37:31.604Z,40.45
2022-08-12T07:40:00.521Z,40.21
2022-08-12T07:42:28.612Z,40.83
2022-08-12T07:44:56.386Z,40.36
2022-08-12T07:47:24.084Z,40.32
2022-08-12T07:50:05.148Z,39.74
2022-08-12T07:52:44.137Z,39.04
2022-08-12T07:55:12.063Z,39.75
2022-08-12T07:57:54.207Z,40.42
2022-08-12T08:00:21.420Z,40.22
2022-08-12T08:02:49.347Z,39.51
2022-08-12T08:05:16.351Z,39.36
2022-08-12T08:07:43.009Z,38.92
2022-08-12T08:10:11.610Z,38.80
2022-08-12T08:12:53.737Z,37.66
2022-08-12T08:15:44.640Z,38.04
2022-08-12T08:18:26.040Z,38.13
2022-08-12T08:20:56.039Z,37.96
2022-08-12T08:23:34.855Z,37.96
2022-08-12T08:26:01.962Z,37.05
2022-08-12T08:28:29.334Z,36.85
2022-08-12T08:30:56.007Z,36.18
2022-08-12T08:34:09.571Z,36.28
2022-08-12T08:36:16.590Z,36.79
2022-08-12T08:38:53.301Z,35.73
2022-08-12T08:42:16.030Z,34.26
2022-08-12T08:44:31.603Z,35.51
2022-08-12T08:46:58.549Z,34.99
2022-08-12T08:49:25.764Z,34.77
2022-08-12T08:51:52.481Z,34.06
2022-08-12T08:54:19.099Z,33.93
2022-08-12T08:56:50.043Z,33.64
2022-08-12T08:59:19.372Z,34.28
2022-08-12T09:01:47.210Z,33.86
2022-08-12T09:05:09.197Z,34.20
2022-08-12T09:07:17.421Z,33.77
2022-08-12T09:10:02.463Z,34.68
2022-08-12T09:12:54.240Z,33.12
2022-08-12T09:15:23.423Z,32.41
2022-08-12T09:18:08.354Z,32.61
2022-08-12T09:20:36.491Z,33.16
2022-08-12T09:23:59.154Z,33.03
2022-08-12T09:25:58.314Z,32.75
2022-08-12T09:28:32.903Z,32.44
2022-08-12T09:31:01.081Z,31.95
2022-08-12T09:34:29.554Z,32.01
2022-08-12T09:36:30.674Z,30.85
2022-08-12T09:40:07.902Z,30.70
2022-08-12T09:42:43.050Z,31.33
2022-08-12T09:45:23.319Z,30.95
2022-08-12T09:47:59.642Z,31.17
2022-08-12T09:50:27.541Z,31.56
2022-08-12T09:53:15.261Z,30.70
2022-08-12T09:56:56.713Z,30.54
2022-08-12T09:58:58.968Z,31.15
2022-08-12T10:01:24.423Z,30.91
2022-08-12T10:04:02.968Z,31.11
2022-08-12T10:06:35.945Z,30.76
2022-08-12T10:09:08.653Z,30.82
2022-08-12T10:12:10.020Z,29.88
2022-08-12T10:14:38.011Z,28.29
2022-08-12T10:17:08.983Z,29.08
2022-08-12T10:19:37.874Z,30.11
2022-08-12T10:22:16.514Z,29.53
2022-08-12T10:24:43.420Z,29.42
2022-08-12T10:27:39.250Z,29.78
2022-08-12T10:30:41.523Z,28.97
2022-08-12T10:33:00.221Z,28.60
2022-08-12T10:35:38.178Z,29.15
2022-08-12T10:38:38.853Z,28.48
2022-08-12T10:41:12.187Z,28.44
2022-08-12T10:43:54.191Z,28.80
2022-08-12T10:46:24.072Z,28.30
2022-08-12T10:49:06.687Z,27.94
2022-08-12T10:52:03.593Z,26.90
2022-08-12T10:54:32.622Z,27.59
2022-08-12T10:57:02.958Z,26.75
2022-08-12T11:00:01.455Z,26.58
2022-08-12T11:04:27.483Z,27.38
2022-08-12T11:07:06.649Z,27.04
2022-08-12T11:08:38.193Z,27.10
2022-08-12T11:10:38.212Z,27.09
2022-08-12T11:13:09.280Z,26.66
2022-08-12T11:16:04.267Z,26.71
2022-08-12T11:18:23.986Z,26.47
2022-08-12T11:20:52.095Z,26.47
2022-08-12T11:23:25.361Z,26.58
2022-08-12T11:26:05.908Z,26.05
2022-08-12T11:28:33.849Z,25.40
2022-08-12T11:31:03.713Z,26.38
2022-08-12T11:34:05.822Z,27.69
2022-08-12T11:36:17.929Z,28.24
2022-08-12T11:38:50.801Z,27.42
2022-08-12T11:41:31.822Z,28.03
2022-08-12T11:44:02.012Z,27.98
2022-08-12T11:46:50.978Z,26.99
2022-08-12T11:49:30.745Z,27.17
2022-08-12T11:52:03.745Z,27.43
2022-08-12T11:54:31.623Z,26.95
2022-08-12T11:57:00.521Z,27.57
2022-08-12T12:02:20.641Z,29.09
2022-08-12T12:04:52.250Z,28.04
2022-08-12T12:07:22.631Z,27.31
2022-08-12T12:10:00.311Z,27.33
2022-08-12T12:12:26.963Z,26.56
2022-08-12T12:14:54.650Z,26.90
2022-08-12T12:17:24.034Z,26.86
2022-08-12T12:19:53.083Z,26.38
2022-08-12T12:22:23.643Z,26.27
2022-08-12T12:24:58.963Z,26.79
2022-08-12T12:28:04.322Z,27.78
2022-08-12T12:30:33.491Z,27.48
2022-08-12T12:33:01.038Z,27.49
2022-08-12T12:36:18.460Z,27.13
2022-08-12T12:38:16.147Z,26.82
2022-08-12T12:40:50.491Z,26.30
2022-08-12T12:43:28.923Z,27.05
2022-08-12T12:46:05.891Z,27.68
2022-08-12T12:48:33.092Z,27.66
2022-08-12T12:51:49.007Z,27.37
2022-08-12T12:54:08.229Z,27.92
2022-08-12T12:56:41.942Z,29.10
2022-08-12T12:59:54.818Z,29.48
2022-08-12T13:01:56.078Z,29.24
2022-08-12T13:04:24.721Z,30.04
2022-08-12T13:06:52.347Z,30.42
2022-08-12T13:09:22.090Z,30.72
2022-08-12T13:11:53.444Z,31.17
2022-08-12T13:14:28.101Z,30.73
2022-08-12T13:16:57.464Z,29.76
2022-08-12T13:19:37.651Z,30.37
2022-08-12T13:22:20.110Z,29.10
2022-08-12T13:24:55.541Z,28.18
2022-08-12T13:27:49.074Z,28.84
2022-08-12T13:30:23.667Z,27.93
2022-08-12T13:32:57.510Z,28.19
2022-08-12T13:36:05.537Z,28.96
2022-08-12T13:38:43.819Z,27.79
2022-08-12T13:41:34.306Z,28.37
2022-08-12T13:44:03.915Z,29.20
2022-08-12T13:46:30.584Z,30.04
2022-08-12T13:48:57.694Z,30.42
2022-08-12T13:51:25.100Z,30.29
2022-08-12T13:54:11.628Z,29.98
2022-08-12T13:56:40.769Z,28.70
2022-08-12T13:59:11.759Z,28.36
2022-08-12T14:01:40.487Z,27.71
2022-08-12T14:04:12.048Z,26.84
2022-08-12T14:06:39.774Z,26.17
2022-08-12T14:09:17.885Z,27.06
2022-08-12T14:11:58.468Z,27.70
2022-08-12T14:14:26.630Z,28.77
2022-08-12T14:16:53.643Z,29.01
2022-08-12T14:19:24.302Z,29.13
2022-08-12T14:22:00.688Z,29.69
2022-08-12T14:24:35.606Z,29.91
2022-08-12T14:27:03.770Z,29.30
2022-08-12T14:29:38.084Z,27.92
2022-08-12T14:32:23.587Z,26.91
2022-08-12T14:34:51.647Z,26.89
2022-08-12T14:37:57.413Z,27.05
2022-08-12T14:40:07.075Z,26.40
2022-08-12T14:42:33.720Z,27.36
2022-08-12T14:45:02.203Z,27.69
2022-08-12T14:47:35.088Z,27.83
2022-08-12T14:50:58.280Z,28.61
2022-08-12T14:58:32.131Z,27.21
2022-08-12T15:01:21.200Z,27.52
2022-08-12T15:03:56.998Z,27.12
2022-08-12T15:06:43.555Z,27.19
2022-08-12T15:09:16.011Z,26.92
2022-08-12T15:11:54.321Z,27.19
2022-08-12T15:14:25.611Z,27.44
2022-08-12T15:16:53.729Z,28.20
2022-08-12T15:20:11.547Z,28.50
2022-08-12T15:22:37.939Z,28.01
2022-08-12T15:24:54.062Z,28.25
2022-08-12T15:27:22.247Z,28.28
2022-08-12T15:29:58.140Z,27.57
2022-08-12T15:32:32.183Z,26.98
2022-08-12T15:35:02.697Z,27.46
2022-08-12T15:38:08.202Z,27.08
2022-08-12T15:40:30.105Z,27.31
2022-08-12T15:43:01.195Z,27.26
2022-08-12T15:45:32.158Z,27.52
2022-08-12T15:48:16.619Z,27.54
2022-08-12T15:50:52.824Z,27.10
2022-08-12T15:53:40.533Z,27.09
2022-08-12T15:56:12.505Z,27.63
2022-08-12T15:58:43.933Z,27.75
2022-08-12T16:01:16.393Z,28.05
2022-08-12T16:04:00.370Z,28.49
2022-08-12T16:06:50.928Z,28.39
2022-08-12T16:09:21.583Z,28.41
2022-08-12T16:11:48.790Z,28.85
2022-08-12T16:14:16.245Z,29.50
2022-08-12T16:16:43.235Z,29.85
2022-08-12T16:20:04.036Z,29.77
2022-08-12T16:22:07.177Z,29.98
2022-08-12T16:24:43.583Z,29.99
2022-08-12T16:27:10.934Z,30.51
2022-08-12T16:29:53.013Z,30.51
2022-08-12T16:32:23.940Z,30.27
2022-08-12T16:34:55.672Z,30.37
2022-08-12T16:37:32.708Z,30.20
2022-08-12T16:40:11.231Z,30.04
2022-08-12T16:42:54.394Z,29.15
2022-08-12T16:46:04.127Z,29.40
2022-08-12T16:48:35.030Z,29.04
2022-08-12T16:51:09.437Z,29.91
2022-08-12T16:53:44.074Z,29.80
2022-08-12T16:56:14.851Z,29.74
2022-08-12T16:58:42.219Z,29.92
2022-08-12T17:01:14.435Z,29.96
2022-08-12T17:04:08.664Z,29.89
2022-08-12T17:06:36.657Z,29.63
2022-08-12T17:09:08.628Z,29.74
2022-08-12T17:11:44.158Z,29.48
2022-08-12T17:14:10.878Z,29.62
2022-08-12T17:16:40.447Z,29.27
2022-08-12T17:19:08.994Z,29.72
2022-08-12T17:21:40.865Z,29.32
2022-08-12T17:24:16.497Z,29.88
2022-08-12T17:26:49.445Z,29.68
2022-08-12T17:29:32.044Z,30.69
2022-08-12T17:32:10.235Z,31.82
2022-08-12T17:34:56.038Z,32.88
2022-08-12T17:37:22.718Z,33.40
2022-08-12T17:40:12.530Z,33.83
2022-08-12T17:42:42.321Z,34.33
2022-08-12T17:45:18.030Z,34.28
2022-08-12T17:48:04.590Z,34.92
2022-08-12T17:50:38.788Z,35.19
2022-08-12T17:53:08.186Z,35.31
2022-08-12T17:55:47.631Z,35.26
2022-08-12T17:58:17.405Z,35.72
2022-08-12T18:00:45.785Z,35.91
2022-08-12T18:04:04.633Z,36.19
2022-08-12T18:06:13.979Z,36.41
2022-08-12T18:08:55.100Z,36.46
2022-08-12T18:12:06.345Z,36.40
2022-08-12T18:14:31.224Z,36.47
2022-08-12T18:17:00.666Z,36.24
2022-08-12T18:20:04.062Z,35.93
2022-08-12T18:22:17.649Z,36.23
2022-08-12T18:24:50.535Z,36.06
2022-08-12T18:27:46.621Z,36.04
2022-08-12T18:30:20.450Z,35.92
2022-08-12T18:33:03.818Z,35.74
2022-08-12T18:35:46.500Z,36.09
2022-08-12T18:38:19.302Z,36.37
2022-08-12T18:41:07.564Z,36.31
2022-08-12T18:43:58.960Z,36.41
2022-08-12T18:46:48.939Z,36.68
2022-08-12T18:49:32.025Z,36.92
2022-08-12T18:52:04.445Z,37.21
2022-08-12T18:54:35.919Z,37.60
2022-08-12T18:57:16.255Z,37.82
2022-08-12T19:00:01.616Z,37.90
2022-08-12T19:02:36.079Z,38.27
2022-08-12T19:05:09.941Z,38.73
2022-08-12T19:07:49.562Z,38.90
2022-08-12T19:10:25.805Z,38.85
2022-08-12T19:13:18.537Z,39.34
2022-08-12T19:15:58.027Z,39.53
2022-08-12T19:18:30.206Z,39.50
2022-08-12T19:21:06.403Z,39.92
2022-08-12T19:23:39.530Z,39.87
2022-08-12T19:26:10.872Z,40.14
2022-08-12T19:28:40.119Z,40.38
2022-08-12T19:31:56.387Z,40.42
2022-08-12T19:35:53.966Z,40.58
2022-08-12T19:38:03.163Z,40.63
2022-08-12T19:40:31.276Z,40.74
2022-08-12T19:43:19.480Z,40.97
2022-08-12T19:45:53.179Z,41.13
2022-08-12T19:48:23.812Z,41.42
2022-08-12T19:50:53.517Z,41.52
2022-08-12T19:53:23.005Z,41.49
2022-08-12T19:55:55.541Z,41.47
2022-08-12T19:58:23.647Z,41.61
2022-08-12T20:00:52.892Z,41.97
2022-08-12T20:03:40.217Z,42.23
2022-08-12T20:06:13.458Z,42.61
2022-08-12T20:08:47.925Z,42.72
2022-08-12T20:12:14.576Z,42.97
2022-08-12T20:14:08.061Z,43.66
2022-08-12T20:16:57.777Z,43.92
2022-08-12T20:19:52.315Z,44.03
2022-08-12T20:22:23.350Z,43.89
2022-08-12T20:24:55.111Z,44.02
2022-08-12T20:27:29.531Z,44.29
2022-08-12T20:30:13.626Z,44.38
2022-08-12T20:32:51.375Z,44.68
2022-08-12T20:35:24.267Z,44.67
2022-08-12T20:38:07.009Z,44.80
2022-08-12T20:40:39.049Z,45.30
2022-08-12T20:43:06.658Z,45.44
2022-08-12T20:45:50.406Z,45.64
2022-08-12T20:48:17.859Z,45.64
2022-08-12T20:50:51.845Z,45.96
2022-08-12T20:53:26.549Z,45.84
2022-08-12T20:56:00.486Z,46.02
2022-08-12T20:58:28.288Z,46.43
2022-08-12T21:00:57.516Z,46.60
2022-08-12T21:03:52.345Z,46.57
2022-08-12T21:06:43.461Z,46.30
2022-08-12T21:09:10.642Z,46.68
2022-08-12T21:11:37.748Z,46.74
2022-08-12T21:14:05.031Z,46.74
2022-08-12T21:16:38.869Z,47.12
2022-08-12T21:19:08.095Z,47.14
2022-08-12T21:21:40.362Z,46.79
2022-08-12T21:24:17.946Z,46.96
2022-08-12T21:26:49.789Z,47.05
2022-08-12T21:29:21.342Z,47.16
2022-08-12T21:32:36.697Z,47.13
2022-08-12T21:34:36.312Z,47.48
2022-08-12T21:37:26.992Z,47.32
2022-08-12T21:39:53.495Z,47.65
2022-08-12T21:42:29.325Z,47.56
2022-08-12T21:45:46.408Z,47.89
2022-08-12T21:47:46.553Z,48.13
2022-08-12T21:50:19.787Z,48.37
2022-08-12T21:52:49.045Z,48.56
2022-08-12T21:55:18.280Z,48.50
2022-08-12T21:57:54.599Z,48.92
2022-08-12T22:00:32.303Z,49.28
2022-08-12T22:04:03.795Z,49.52
2022-08-12T22:06:30.846Z,49.37
2022-08-12T22:09:15.666Z,49.73
2022-08-12T22:11:56.934Z,50.12
2022-08-12T22:14:30.084Z,50.21
2022-08-12T22:16:58.491Z,50.63
2022-08-12T22:19:26.684Z,51.00
2022-08-12T22:21:56.284Z,51.14
2022-08-12T22:24:30.112Z,51.63
2022-08-12T22:27:07.953Z,51.16
2022-08-12T22:30:08.518Z,51.61
2022-08-12T22:32:42.047Z,51.45
2022-08-12T22:35:47.665Z,51.75
2022-08-12T22:38:20.032Z,51.71
2022-08-12T22:40:52.232Z,52.03
2022-08-12T22:44:01.210Z,52.47
2022-08-12T22:46:27.320Z,52.40
2022-08-12T22:48:57.301Z,52.77
2022-08-12T22:51:24.467Z,52.80
2022-08-12T22:53:55.336Z,52.96
2022-08-12T22:56:31.011Z,53.05
2022-08-12T22:59:02.621Z,53.47
2022-08-12T23:01:52.333Z,53.59
2022-08-12T23:04:27.977Z,54.25
2022-08-12T23:06:57.336Z,54.19
2022-08-12T23:09:34.743Z,54.34
2022-08-12T23:12:34.744Z,54.56
2022-08-12T23:15:04.807Z,55.05
2022-08-12T23:17:40.642Z,54.76
2022-08-12T23:20:10.980Z,54.87
2022-08-12T23:22:38.736Z,55.12
2022-08-12T23:25:19.068Z,55.20
2022-08-12T23:28:29.614Z,55.65
2022-08-12T23:31:04.808Z,56.04
2022-08-12T23:34:02.431Z,56.25
2022-08-12T23:36:39.253Z,56.31
2022-08-12T23:40:14.167Z,56.17
2022-08-12T23:42:17.700Z,56.44
2022-08-12T23:44:43.833Z,56.84
2022-08-12T23:47:11.214Z,56.61
2022-08-12T23:49:57.329Z,56.82
2022-08-12T23:52:28.558Z,57.04
2022-08-12T23:55:24.955Z,57.23
2022-08-12T23:58:18.118Z,57.57
